Time;durP1;ratioP1;P1;durP2;ratioP2;P2;SDS_P1;SDS_P2;PMS_P1;PMS_P2;Temp;Humidity;BMP_temperature;BMP_pressure;BME280_temperature;BME280_humidity;BME280_pressure;Samples;Min_cycle;Max_cycle;Signal;HPM_P1;HPM_P2
2022/10/17 00:01:47;;;;;;;7.18;3.28;;;13.60;80.10;;;;;;5025766;28;20145;-83
2022/10/17 00:04:14;;;;;;;11.13;3.50;;;13.60;80.00;;;;;;5008913;28;20055;-83
2022/10/17 00:06:41;;;;;;;8.70;3.40;;;13.60;80.10;;;;;;5007178;28;20399;-83
2022/10/17 00:09:09;;;;;;;6.17;3.10;;;13.60;80.20;;;;;;4992245;28;20142;-83
2022/10/17 00:11:36;;;;;;;8.73;3.30;;;13.60;80.30;;;;;;4992457;28;20929;-82
2022/10/17 00:14:03;;;;;;;7.32;3.15;;;13.70;80.30;;;;;;5008903;28;20054;-83
2022/10/17 00:16:35;;;;;;;6.55;2.90;;;13.70;80.50;;;;;;4991883;28;20061;-82
2022/10/17 00:19:02;;;;;;;7.35;3.33;;;13.60;80.50;;;;;;5008622;28;20042;-83
2022/10/17 00:21:29;;;;;;;9.03;3.33;;;13.60;80.70;;;;;;5008714;28;20117;-83
2022/10/17 00:23:56;;;;;;;9.07;3.40;;;13.70;80.70;;;;;;4990661;28;20277;-82
2022/10/17 00:26:23;;;;;;;8.73;3.50;;;13.60;80.70;;;;;;5008655;28;20542;-82
2022/10/17 00:28:52;;;;;;;8.40;3.33;;;13.70;80.70;;;;;;4992080;28;20552;-82
2022/10/17 00:31:21;;;;;;;7.13;3.35;;;13.70;80.80;;;;;;4992448;28;20061;-83
2022/10/17 00:33:51;;;;;;;8.50;3.83;;;13.70;80.90;;;;;;4992415;28;20054;-82
2022/10/17 00:36:20;;;;;;;6.68;3.22;;;13.70;81.10;;;;;;4992530;28;20344;-83
2022/10/17 00:38:50;;;;;;;6.82;3.55;;;13.70;81.20;;;;;;5009940;28;20512;-82
2022/10/17 00:41:20;;;;;;;7.57;3.47;;;13.60;81.40;;;;;;4990301;28;20086;-83
2022/10/17 00:43:58;;;;;;;7.22;3.50;;;13.70;81.40;;;;;;4992908;28;20500;-82
2022/10/17 00:46:27;;;;;;;7.40;3.57;;;13.70;81.60;;;;;;4995508;28;20054;-83
2022/10/17 00:48:57;;;;;;;6.63;3.40;;;13.70;81.60;;;;;;4995309;28;21070;-83
2022/10/17 00:51:32;;;;;;;5.55;3.22;;;13.70;81.60;;;;;;4995491;28;20077;-83
2022/10/17 00:54:00;;;;;;;6.45;3.63;;;13.70;81.80;;;;;;4995292;28;20047;-83
2022/10/17 00:56:27;;;;;;;9.95;3.90;;;13.70;81.50;;;;;;4995437;28;20508;-83
2022/10/17 00:58:54;;;;;;;6.20;4.07;;;13.70;81.60;;;;;;4993579;28;20043;-83
2022/10/17 01:01:21;;;;;;;7.13;4.10;;;13.70;81.60;;;;;;4995379;28;20332;-83
2022/10/17 01:03:48;;;;;;;6.55;3.92;;;13.70;81.60;;;;;;4995198;28;20406;-83
2022/10/17 01:06:16;;;;;;;9.93;4.43;;;13.80;81.60;;;;;;4994815;28;20050;-83
2022/10/17 01:08:43;;;;;;;7.07;4.15;;;13.80;81.90;;;;;;4994994;28;20616;-83
2022/10/17 01:11:22;;;;;;;6.93;4.07;;;13.80;81.90;;;;;;4995517;28;20505;-83
2022/10/17 01:13:54;;;;;;;7.53;4.03;;;13.90;82.00;;;;;;4995515;28;20281;-83
2022/10/17 01:16:36;;;;;;;7.57;4.18;;;13.90;82.10;;;;;;5009767;28;20061;-82
2022/10/17 01:19:12;;;;;;;7.28;4.00;;;13.90;82.30;;;;;;4994769;28;20137;-82
2022/10/17 01:21:52;;;;;;;6.32;3.80;;;13.90;82.30;;;;;;5011538;28;20491;-83
2022/10/17 01:24:44;;;;;;;8.17;3.93;;;13.90;82.40;;;;;;4995017;28;20150;-83
2022/10/17 01:27:56;;;;;;;10.20;4.28;;;13.90;82.30;;;;;;5011434;28;20729;-83
2022/10/17 01:30:45;;;;;;;7.75;3.67;;;13.90;82.40;;;;;;4994750;28;20055;-83
2022/10/17 01:33:17;;;;;;;8.48;4.00;;;13.90;82.30;;;;;;4993536;28;20392;-82
2022/10/17 01:35:52;;;;;;;8.63;4.40;;;13.90;82.20;;;;;;4995167;28;20059;-83
2022/10/17 01:38:23;;;;;;;7.67;4.10;;;13.90;82.20;;;;;;4994958;28;20189;-83
2022/10/17 01:40:56;;;;;;;9.60;4.57;;;13.90;82.10;;;;;;4994476;28;20253;-82
2022/10/17 01:43:29;;;;;;;6.85;4.30;;;13.90;82.10;;;;;;4991876;28;20054;-83
2022/10/17 01:46:01;;;;;;;7.35;4.32;;;13.90;82.10;;;;;;4994540;28;20050;-83
2022/10/17 01:48:34;;;;;;;7.55;4.40;;;13.90;82.10;;;;;;4992977;28;20050;-83
2022/10/17 01:51:07;;;;;;;8.67;4.50;;;13.90;82.20;;;;;;4994524;28;20475;-83
2022/10/17 01:53:39;;;;;;;7.60;4.55;;;13.90;82.00;;;;;;4994260;28;20302;-83
2022/10/17 01:56:09;;;;;;;8.70;4.47;;;13.90;82.10;;;;;;4994379;28;20129;-82
2022/10/17 01:58:41;;;;;;;8.30;4.43;;;13.90;82.10;;;;;;4994546;28;20489;-83
2022/10/17 02:01:11;;;;;;;8.45;4.43;;;13.90;82.20;;;;;;4994050;28;20058;-83
2022/10/17 02:03:40;;;;;;;10.00;4.87;;;13.90;82.10;;;;;;4994335;28;20133;-83
2022/10/17 02:06:08;;;;;;;8.65;4.70;;;13.90;82.10;;;;;;4992425;28;20340;-83
2022/10/17 02:08:41;;;;;;;7.00;4.70;;;13.90;82.10;;;;;;4994180;28;20046;-83
2022/10/17 02:11:14;;;;;;;7.28;4.50;;;13.90;82.20;;;;;;4993989;28;20057;-83
2022/10/17 02:14:00;;;;;;;7.65;4.75;;;13.90;82.00;;;;;;4994180;28;20057;-83
2022/10/17 02:16:41;;;;;;;7.33;4.97;;;13.90;82.10;;;;;;4994059;28;20525;-82
2022/10/17 02:19:30;;;;;;;9.52;4.75;;;13.90;82.10;;;;;;5010487;28;20388;-83
2022/10/17 02:22:12;;;;;;;6.45;4.50;;;13.90;82.00;;;;;;4993765;28;20062;-82
2022/10/17 02:24:49;;;;;;;7.55;5.07;;;13.90;82.00;;;;;;5008865;28;20081;-83
2022/10/17 02:27:25;;;;;;;7.75;5.25;;;13.90;81.90;;;;;;5010265;28;20055;-83
2022/10/17 02:30:00;;;;;;;8.50;4.90;;;13.90;82.00;;;;;;4994050;28;20050;-83
2022/10/17 02:32:36;;;;;;;6.78;4.97;;;13.90;81.90;;;;;;4993840;28;20349;-83
2022/10/17 02:35:07;;;;;;;8.52;5.30;;;13.90;81.90;;;;;;4994092;28;20646;-83
2022/10/17 02:37:35;;;;;;;9.38;5.80;;;13.90;82.00;;;;;;5010210;28;20054;-82
2022/10/17 02:40:04;;;;;;;9.95;5.47;;;13.90;82.00;;;;;;4992376;28;20599;-83
2022/10/17 02:42:32;;;;;;;9.13;5.33;;;13.90;82.10;;;;;;4993704;28;20038;-82
2022/10/17 02:45:01;;;;;;;8.18;5.65;;;13.90;82.20;;;;;;4993912;28;20312;-83
2022/10/17 02:47:35;;;;;;;8.02;5.47;;;13.90;82.20;;;;;;4993690;28;20057;-83
2022/10/17 02:50:04;;;;;;;11.43;5.57;;;13.90;82.30;;;;;;4993454;28;20051;-82
2022/10/17 02:52:39;;;;;;;9.88;5.82;;;13.90;82.40;;;;;;4999275;28;20050;-82
2022/10/17 02:55:13;;;;;;;8.80;5.77;;;13.90;82.60;;;;;;4998205;28;20108;-83
2022/10/17 02:57:45;;;;;;;8.95;5.72;;;13.90;82.60;;;;;;4992721;28;20266;-83
2022/10/17 03:00:15;;;;;;;7.70;5.75;;;13.90;82.60;;;;;;4992769;28;20050;-83
2022/10/17 03:02:46;;;;;;;11.27;6.10;;;13.90;82.70;;;;;;5010768;28;20462;-83
2022/10/17 03:05:16;;;;;;;8.57;6.03;;;13.90;82.90;;;;;;5010313;28;20085;-83
2022/10/17 03:07:44;;;;;;;10.93;6.00;;;13.90;82.90;;;;;;4992235;28;20358;-83
2022/10/17 03:10:11;;;;;;;9.90;5.93;;;13.90;82.90;;;;;;4993218;28;20262;-83
2022/10/17 03:12:38;;;;;;;9.32;6.18;;;13.90;83.00;;;;;;4993107;28;20509;-83
2022/10/17 03:15:07;;;;;;;9.68;5.95;;;13.90;83.10;;;;;;5007623;28;20054;-83
2022/10/17 03:17:34;;;;;;;9.70;6.32;;;13.90;83.00;;;;;;4993060;28;20061;-83
2022/10/17 03:20:03;;;;;;;9.20;6.50;;;13.90;83.00;;;;;;5008971;28;20058;-83
2022/10/17 03:22:31;;;;;;;8.95;6.18;;;13.90;83.10;;;;;;4992710;28;20246;-83
2022/10/17 03:24:59;;;;;;;9.48;6.55;;;13.90;83.20;;;;;;4992926;28;20050;-82
2022/10/17 03:27:26;;;;;;;9.52;6.60;;;13.90;83.20;;;;;;4993013;28;20046;-82
2022/10/17 03:29:53;;;;;;;10.20;6.72;;;13.90;83.20;;;;;;4992916;28;20057;-83
2022/10/17 03:32:21;;;;;;;9.53;6.63;;;13.90;83.30;;;;;;4991157;28;20058;-83
2022/10/17 03:34:48;;;;;;;10.65;7.20;;;13.90;83.40;;;;;;4992524;28;20286;-83
2022/10/17 03:37:17;;;;;;;10.15;6.90;;;13.90;83.50;;;;;;4993120;28;20062;-82
2022/10/17 03:39:44;;;;;;;10.68;6.60;;;13.90;83.40;;;;;;4992252;28;20062;-83
2022/10/17 03:42:11;;;;;;;10.30;6.80;;;13.90;83.60;;;;;;4992470;28;20066;-83
2022/10/17 03:44:38;;;;;;;9.50;7.17;;;13.90;83.80;;;;;;4992546;28;20084;-83
2022/10/17 03:47:05;;;;;;;11.18;7.00;;;13.90;83.90;;;;;;4992872;28;20249;-83
2022/10/17 03:49:32;;;;;;;8.73;6.80;;;13.90;84.00;;;;;;4990361;28;20545;-83
2022/10/17 03:51:59;;;;;;;10.02;7.40;;;13.90;84.00;;;;;;4992466;28;20571;-83
2022/10/17 03:54:29;;;;;;;10.25;7.00;;;13.90;84.00;;;;;;4991844;28;20046;-83
2022/10/17 03:56:56;;;;;;;11.90;7.30;;;13.90;84.10;;;;;;4992588;28;20054;-83
2022/10/17 03:59:23;;;;;;;10.18;6.78;;;13.90;84.20;;;;;;4991726;28;20250;-83
2022/10/17 04:01:59;;;;;;;10.30;6.90;;;13.90;84.30;;;;;;4992695;28;20046;-83
2022/10/17 04:04:27;;;;;;;9.70;7.13;;;13.90;84.30;;;;;;4990992;28;20166;-82
2022/10/17 04:06:53;;;;;;;11.45;7.65;;;13.90;84.50;;;;;;4991912;28;20051;-83
2022/10/17 04:09:21;;;;;;;9.60;6.80;;;13.90;84.40;;;;;;4992033;28;20056;-83
2022/10/17 04:12:01;;;;;;;10.88;7.70;;;13.90;84.50;;;;;;4992215;28;20265;-83
2022/10/17 04:14:29;;;;;;;12.05;7.75;;;13.90;84.50;;;;;;4992388;28;20050;-83
2022/10/17 04:16:58;;;;;;;11.50;7.88;;;13.90;84.50;;;;;;4992415;28;20050;-83
2022/10/17 04:19:26;;;;;;;10.00;7.15;;;13.90;84.60;;;;;;5008068;28;20074;-83
2022/10/17 04:21:54;;;;;;;10.87;7.33;;;13.90;84.60;;;;;;4990719;28;20050;-83
2022/10/17 04:24:21;;;;;;;9.98;6.75;;;14.00;84.60;;;;;;4992092;28;20282;-83
2022/10/17 04:26:57;;;;;;;13.00;8.32;;;14.00;84.60;;;;;;5008412;28;20057;-84
2022/10/17 04:29:29;;;;;;;10.75;7.35;;;14.00;84.80;;;;;;4992004;28;20056;-83
2022/10/17 04:32:07;;;;;;;12.52;8.00;;;14.00;84.60;;;;;;4991800;28;20554;-83
2022/10/17 04:34:44;;;;;;;10.37;7.70;;;14.00;84.60;;;;;;4992335;28;20576;-83
2022/10/17 04:37:11;;;;;;;11.20;7.45;;;14.00;84.70;;;;;;4992075;28;20250;-83
2022/10/17 04:39:38;;;;;;;11.55;7.68;;;14.00;85.00;;;;;;4990259;28;20697;-83
2022/10/17 04:42:05;;;;;;;11.85;8.35;;;14.00;84.90;;;;;;5008336;28;20548;-83
2022/10/17 04:44:35;;;;;;;11.25;7.90;;;14.00;85.00;;;;;;4991751;28;20487;-83
2022/10/17 04:47:02;;;;;;;11.73;7.90;;;14.10;85.00;;;;;;4992023;28;20054;-85
2022/10/17 04:49:29;;;;;;;14.50;8.70;;;14.00;85.10;;;;;;4991620;28;20271;-85
2022/10/17 04:52:03;;;;;;;13.90;8.48;;;14.10;85.30;;;;;;4992033;28;20082;-85
2022/10/17 04:54:50;;;;;;;11.55;7.82;;;14.10;85.20;;;;;;4991780;28;20061;-85
2022/10/17 04:57:18;;;;;;;11.57;8.30;;;14.10;85.20;;;;;;5006865;28;20059;-84
2022/10/17 04:59:57;;;;;;;13.53;8.60;;;14.10;85.20;;;;;;4991340;28;20050;-84
2022/10/17 05:02:46;;;;;;;13.95;8.20;;;14.10;85.30;;;;;;5007980;28;20267;-84
2022/10/17 05:05:13;;;;;;;12.77;8.77;;;14.20;85.70;;;;;;4991708;28;20162;-84
2022/10/17 05:07:40;;;;;;;14.27;8.70;;;14.10;85.60;;;;;;4991674;28;20050;-84
2022/10/17 05:10:12;;;;;;;12.73;8.30;;;14.20;85.70;;;;;;4991808;28;20054;-84
2022/10/17 05:12:44;;;;;;;15.93;8.93;;;14.20;85.70;;;;;;4991054;28;20493;-85
2022/10/17 05:15:12;;;;;;;12.85;8.65;;;14.20;85.70;;;;;;4991386;28;21152;-84
2022/10/17 05:17:41;;;;;;;16.08;9.45;;;14.30;85.80;;;;;;4990725;28;20066;-84
2022/10/17 05:20:09;;;;;;;13.48;8.23;;;14.30;86.30;;;;;;4990616;28;20105;-85
2022/10/17 05:22:36;;;;;;;15.45;8.40;;;14.30;86.40;;;;;;4990539;28;20126;-85
2022/10/17 05:25:05;;;;;;;13.83;9.00;;;14.40;86.40;;;;;;4990976;28;20054;-84
2022/10/17 05:27:33;;;;;;;14.18;8.90;;;14.40;86.40;;;;;;4990357;28;20262;-84
2022/10/17 05:30:01;;;;;;;14.88;8.00;;;14.40;86.40;;;;;;4990731;28;20093;-83
2022/10/17 05:32:32;;;;;;;13.18;8.23;;;14.40;86.40;;;;;;4995587;28;20206;-85
2022/10/17 05:35:00;;;;;;;15.05;8.48;;;14.50;86.60;;;;;;4995619;28;20148;-84
2022/10/17 05:37:30;;;;;;;13.37;8.43;;;14.50;86.60;;;;;;4995141;28;20604;-84
2022/10/17 05:39:57;;;;;;;14.00;8.98;;;14.50;86.90;;;;;;4991170;28;20364;-83
2022/10/17 05:42:25;;;;;;;14.60;8.85;;;14.60;86.90;;;;;;4991823;28;20067;-84
2022/10/17 05:44:54;;;;;;;16.20;9.52;;;14.60;86.90;;;;;;5000136;28;20145;-83
2022/10/17 05:47:22;;;;;;;15.57;9.15;;;14.60;87.10;;;;;;5026970;28;20094;-83
2022/10/17 05:49:50;;;;;;;15.00;8.73;;;14.70;87.10;;;;;;4994607;28;20054;-84
2022/10/17 05:52:19;;;;;;;13.93;8.50;;;14.70;87.70;;;;;;4985336;28;20350;-83
2022/10/17 05:55:07;;;;;;;14.35;9.40;;;14.80;87.50;;;;;;4990424;28;20054;-83
2022/10/17 05:57:40;;;;;;;14.60;8.57;;;14.80;87.60;;;;;;4999772;28;20078;-83
2022/10/17 06:00:14;;;;;;;14.40;8.63;;;14.80;87.60;;;;;;4983602;28;20051;-83
2022/10/17 06:02:42;;;;;;;12.53;8.37;;;14.90;87.70;;;;;;5000648;28;20057;-82
2022/10/17 06:05:12;;;;;;;13.68;8.57;;;14.90;87.90;;;;;;5004282;28;20337;-83
2022/10/17 06:07:40;;;;;;;16.60;9.07;;;14.90;87.90;;;;;;4985412;28;20073;-83
2022/10/17 06:10:11;;;;;;;14.13;8.30;;;15.00;88.00;;;;;;4988038;28;20936;-83
2022/10/17 06:12:38;;;;;;;13.73;8.35;;;15.00;88.00;;;;;;5006059;28;20125;-83
2022/10/17 06:15:07;;;;;;;13.13;8.67;;;15.00;88.00;;;;;;4986920;28;20054;-83
2022/10/17 06:17:35;;;;;;;16.52;8.25;;;15.10;88.30;;;;;;4981698;28;20258;-83
2022/10/17 06:20:03;;;;;;;14.80;8.80;;;15.10;88.30;;;;;;5007898;28;20050;-83
2022/10/17 06:22:31;;;;;;;15.65;8.80;;;15.20;88.20;;;;;;4981746;28;20133;-84
2022/10/17 06:25:00;;;;;;;15.05;9.02;;;15.20;88.30;;;;;;4985352;28;20081;-83
2022/10/17 06:27:27;;;;;;;14.77;9.20;;;15.20;88.20;;;;;;4991695;28;20097;-83
2022/10/17 06:29:54;;;;;;;15.70;10.30;;;15.30;88.40;;;;;;4986230;28;20345;-83
2022/10/17 06:32:21;;;;;;;18.17;10.70;;;15.30;88.40;;;;;;4988554;28;20054;-83
2022/10/17 06:34:50;;;;;;;15.55;9.68;;;15.30;88.40;;;;;;4988332;28;20050;-83
2022/10/17 06:37:17;;;;;;;16.20;10.07;;;15.40;88.40;;;;;;4994030;28;20050;-83
2022/10/17 06:39:47;;;;;;;14.23;9.17;;;15.40;88.50;;;;;;4993371;28;20054;-83
2022/10/17 06:42:18;;;;;;;16.35;9.15;;;15.40;88.40;;;;;;4994833;28;20790;-84
2022/10/17 06:45:09;;;;;;;14.55;8.43;;;15.40;88.40;;;;;;4992917;28;20516;-83
2022/10/17 06:47:54;;;;;;;12.55;8.20;;;15.50;88.50;;;;;;4993669;28;20081;-83
2022/10/17 06:50:41;;;;;;;18.35;8.45;;;15.50;88.50;;;;;;4992820;28;20057;-82
2022/10/17 06:53:13;;;;;;;12.00;8.20;;;15.60;88.40;;;;;;4994100;28;20081;-82
2022/10/17 06:55:52;;;;;;;15.60;8.65;;;15.50;88.30;;;;;;4996183;28;20353;-82
2022/10/17 06:58:43;;;;;;;14.77;7.68;;;15.60;88.40;;;;;;4999713;28;20046;-83
2022/10/17 07:01:30;;;;;;;13.80;7.55;;;15.60;88.30;;;;;;5008071;28;20050;-82
2022/10/17 07:04:00;;;;;;;15.15;8.75;;;15.60;88.50;;;;;;4989329;28;20585;-83
2022/10/17 07:06:28;;;;;;;13.47;7.47;;;15.60;88.60;;;;;;4985318;28;20059;-83
2022/10/17 07:09:01;;;;;;;14.90;7.90;;;15.70;88.60;;;;;;4984785;28;20729;-84
2022/10/17 07:11:30;;;;;;;12.93;8.18;;;15.70;88.50;;;;;;5000360;28;20054;-82
2022/10/17 07:13:57;;;;;;;14.27;8.18;;;15.80;88.50;;;;;;4987097;28;20047;-82
2022/10/17 07:16:24;;;;;;;12.85;7.63;;;15.80;88.70;;;;;;5004973;28;20634;-86
2022/10/17 07:19:00;;;;;;;13.90;7.90;;;15.80;88.50;;;;;;4992911;28;20050;-83
2022/10/17 07:21:27;;;;;;;14.32;8.13;;;15.80;88.40;;;;;;5009639;28;20278;-83
2022/10/17 07:23:54;;;;;;;12.93;7.90;;;15.80;88.40;;;;;;4989869;28;20539;-80
2022/10/17 07:26:22;;;;;;;12.02;6.82;;;15.90;88.50;;;;;;4972803;28;20043;-81
2022/10/17 07:28:55;;;;;;;14.45;8.15;;;15.90;88.40;;;;;;5004706;28;20051;-82
2022/10/17 07:31:38;;;;;;;12.63;8.07;;;16.00;88.30;;;;;;4991718;28;20045;-83
2022/10/17 07:34:05;;;;;;;11.90;7.50;;;16.00;88.40;;;;;;5007594;28;20267;-82
2022/10/17 07:36:33;;;;;;;12.13;7.40;;;16.00;88.40;;;;;;4980532;28;20051;-84
2022/10/17 07:39:03;;;;;;;13.57;7.78;;;16.00;88.30;;;;;;4989563;28;20133;-82
2022/10/17 07:41:31;;;;;;;15.05;8.05;;;16.00;88.50;;;;;;4993268;28;20077;-80
2022/10/17 07:44:00;;;;;;;13.53;8.03;;;16.10;88.60;;;;;;4993379;28;20046;-81
2022/10/17 07:46:35;;;;;;;11.23;7.68;;;16.10;88.40;;;;;;4992395;28;20302;-82
2022/10/17 07:49:03;;;;;;;13.55;7.55;;;16.10;88.40;;;;;;4992855;28;20046;-82
2022/10/17 07:51:30;;;;;;;11.05;7.28;;;16.20;88.30;;;;;;4993766;28;20043;-83
2022/10/17 07:53:57;;;;;;;13.32;7.60;;;16.20;88.20;;;;;;5009360;28;20109;-83
2022/10/17 07:56:25;;;;;;;11.60;7.30;;;16.20;88.40;;;;;;4982323;28;20068;-84
2022/10/17 07:58:52;;;;;;;13.68;7.43;;;16.20;88.20;;;;;;5009676;28;20269;-83
2022/10/17 08:01:21;;;;;;;13.85;7.70;;;16.30;88.20;;;;;;4993282;28;20515;-86
2022/10/17 08:03:48;;;;;;;13.27;7.82;;;16.40;88.30;;;;;;4992217;28;20050;-83
2022/10/17 08:06:15;;;;;;;11.70;7.00;;;16.40;88.30;;;;;;5009853;28;20050;-87
2022/10/17 08:08:42;;;;;;;12.97;7.67;;;16.40;88.20;;;;;;4994505;28;20066;-85
2022/10/17 08:11:11;;;;;;;11.75;7.25;;;16.40;88.30;;;;;;4993712;28;20266;-87
2022/10/17 08:13:40;;;;;;;11.25;6.72;;;16.50;88.30;;;;;;4993364;28;20046;-87
2022/10/17 08:16:09;;;;;;;9.80;6.13;;;16.50;88.10;;;;;;4993777;28;20073;-87
2022/10/17 08:18:40;;;;;;;11.77;7.10;;;16.60;88.10;;;;;;4993428;28;20535;-84
2022/10/17 08:21:07;;;;;;;11.73;6.13;;;16.60;88.10;;;;;;4992607;28;20082;-82
2022/10/17 08:23:35;;;;;;;10.20;6.57;;;16.70;88.00;;;;;;5009263;28;20338;-85
2022/10/17 08:26:04;;;;;;;12.23;7.03;;;16.70;87.90;;;;;;5009889;28;20051;-86
2022/10/17 08:28:35;;;;;;;13.85;6.47;;;16.70;87.80;;;;;;4994571;28;20058;-87
2022/10/17 08:31:03;;;;;;;12.23;6.50;;;16.80;87.70;;;;;;4994454;28;20058;-87
2022/10/17 08:33:30;;;;;;;10.43;6.30;;;16.80;87.60;;;;;;4977985;28;20568;-88
2022/10/17 08:36:00;;;;;;;11.75;6.72;;;16.80;87.50;;;;;;5003136;28;20305;-89
2022/10/17 08:38:29;;;;;;;11.40;6.57;;;16.80;87.40;;;;;;4981525;28;20059;-87
2022/10/17 08:40:59;;;;;;;11.75;6.43;;;16.90;87.30;;;;;;4973342;28;20059;-86
2022/10/17 08:43:49;;;;;;;11.85;6.03;;;16.90;87.20;;;;;;4975045;28;20047;-86
2022/10/17 08:46:18;;;;;;;9.87;6.30;;;16.90;87.10;;;;;;4992725;28;20062;-87
2022/10/17 08:48:48;;;;;;;10.82;6.18;;;16.90;87.20;;;;;;4973432;28;20365;-89
2022/10/17 08:51:21;;;;;;;11.38;5.53;;;16.90;87.00;;;;;;4973275;28;20153;-86
2022/10/17 08:53:52;;;;;;;9.98;6.22;;;16.90;87.10;;;;;;4975572;28;20109;-85
2022/10/17 08:56:23;;;;;;;12.48;6.68;;;16.90;87.00;;;;;;5006867;28;20050;-87
2022/10/17 08:58:50;;;;;;;10.50;6.07;;;17.00;87.00;;;;;;5000076;28;20046;-87
2022/10/17 09:01:32;;;;;;;11.77;6.22;;;17.00;86.80;;;;;;5025832;28;20337;-87
2022/10/17 09:04:20;;;;;;;11.75;6.65;;;17.00;86.70;;;;;;5009567;28;20062;-88
2022/10/17 09:06:55;;;;;;;10.95;6.53;;;17.00;86.70;;;;;;4976827;28;20057;-86
2022/10/17 09:09:36;;;;;;;12.73;7.10;;;17.00;86.60;;;;;;4977318;28;20746;-89
2022/10/17 09:12:14;;;;;;;11.53;6.83;;;17.10;86.50;;;;;;5008703;28;20114;-87
2022/10/17 09:15:01;;;;;;;12.75;7.05;;;17.10;86.20;;;;;;4977447;28;20354;-87
2022/10/17 09:17:41;;;;;;;10.77;6.85;;;17.20;86.00;;;;;;4976091;28;20062;-87
2022/10/17 09:20:14;;;;;;;11.27;7.40;;;17.20;85.90;;;;;;4992952;28;20499;-87
2022/10/17 09:22:49;;;;;;;12.20;6.88;;;17.20;85.90;;;;;;5013261;28;20145;-86
2022/10/17 09:25:19;;;;;;;10.77;6.43;;;17.20;86.00;;;;;;4976271;28;20133;-87
2022/10/17 09:27:49;;;;;;;10.25;6.22;;;17.20;85.90;;;;;;4975986;28;20290;-87
2022/10/17 09:30:34;;;;;;;14.38;6.97;;;17.20;86.10;;;;;;5000373;28;20066;-86
2022/10/17 09:33:09;;;;;;;11.82;6.68;;;17.20;86.10;;;;;;4995812;28;20906;-87
2022/10/17 09:35:38;;;;;;;10.40;6.00;;;17.20;86.10;;;;;;4995608;28;20050;-88
2022/10/17 09:38:07;;;;;;;9.03;6.27;;;17.20;86.10;;;;;;4995808;28;20487;-87
2022/10/17 09:40:36;;;;;;;10.02;5.95;;;17.20;86.20;;;;;;5012965;28;20740;-87
2022/10/17 09:43:07;;;;;;;10.60;5.80;;;17.20;86.40;;;;;;4996307;28;20047;-87
2022/10/17 09:45:45;;;;;;;9.80;5.80;;;17.20;86.30;;;;;;4996683;28;20055;-86
2022/10/17 09:48:41;;;;;;;10.25;5.82;;;17.20;86.50;;;;;;4997489;28;20530;-87
2022/10/17 09:51:09;;;;;;;11.60;6.70;;;17.30;86.40;;;;;;4995645;28;20050;-88
2022/10/17 09:53:40;;;;;;;9.60;6.13;;;17.20;86.80;;;;;;4996929;28;20269;-88
2022/10/17 09:56:11;;;;;;;10.85;6.30;;;17.20;86.70;;;;;;4997299;28;20042;-89
2022/10/17 09:58:44;;;;;;;11.32;6.57;;;17.30;86.80;;;;;;4997875;28;20065;-88
2022/10/17 10:01:23;;;;;;;12.07;7.05;;;17.20;87.00;;;;;;4997324;28;20050;-89
2022/10/17 10:04:09;;;;;;;10.10;6.23;;;17.30;87.00;;;;;;4997759;28;20058;-89
2022/10/17 10:06:38;;;;;;;12.07;6.95;;;17.30;87.20;;;;;;4999272;28;20262;-89
2022/10/17 10:09:21;;;;;;;13.05;7.13;;;17.30;87.30;;;;;;5013592;28;20058;-89
2022/10/17 10:11:54;;;;;;;10.80;6.70;;;17.20;87.30;;;;;;4997489;28;20053;-88
2022/10/17 10:14:23;;;;;;;11.05;7.00;;;17.20;87.30;;;;;;4997108;28;20105;-88
2022/10/17 10:16:54;;;;;;;10.43;6.07;;;17.30;87.40;;;;;;5013157;28;20053;-90
2022/10/17 10:19:30;;;;;;;9.80;6.45;;;17.20;87.50;;;;;;5029737;28;20789;-88
2022/10/17 10:21:59;;;;;;;10.60;6.72;;;17.20;87.50;;;;;;4996877;28;20150;-89
2022/10/17 10:24:31;;;;;;;12.43;6.57;;;17.20;87.50;;;;;;4996566;28;20054;-88
2022/10/17 10:27:00;;;;;;;12.50;7.20;;;17.20;87.60;;;;;;4996333;28;20405;-88
2022/10/17 10:29:31;;;;;;;10.53;6.80;;;17.20;87.70;;;;;;4995440;28;20056;-89
2022/10/17 10:32:08;;;;;;;11.82;7.30;;;17.20;88.00;;;;;;5013674;28;20258;-88
2022/10/17 10:34:38;;;;;;;11.95;7.50;;;17.20;88.20;;;;;;4997139;28;20056;-87
2022/10/17 10:37:15;;;;;;;11.32;7.10;;;17.20;88.20;;;;;;5013969;28;20813;-88
2022/10/17 10:39:48;;;;;;;10.80;6.78;;;17.20;88.30;;;;;;4995992;28;20054;-89
2022/10/17 10:42:28;;;;;;;13.10;7.63;;;17.30;88.30;;;;;;4995748;28;20109;-90
2022/10/17 10:45:02;;;;;;;10.70;7.47;;;17.20;88.40;;;;;;5013441;28;20258;-84
2022/10/17 10:47:30;;;;;;;11.98;6.90;;;17.30;88.50;;;;;;4996714;28;20058;-88
2022/10/17 10:50:32;;;;;;;14.13;8.55;;;17.20;88.40;;;;;;4995153;28;20081;-89
2022/10/17 10:53:15;;;;;;;13.02;7.75;;;17.20;88.30;;;;;;5011597;28;20166;-85
2022/10/17 10:55:47;;;;;;;15.60;8.60;;;17.20;88.30;;;;;;5009236;28;20505;-84
2022/10/17 10:58:25;;;;;;;10.45;6.90;;;17.20;88.30;;;;;;5008495;28;21244;-84
2022/10/17 11:00:54;;;;;;;11.68;6.55;;;17.20;88.30;;;;;;4988609;28;20053;-84
2022/10/17 11:03:26;;;;;;;12.75;6.63;;;17.20;88.40;;;;;;4989780;28;20057;-88
2022/10/17 11:06:00;;;;;;;13.23;6.80;;;17.20;88.40;;;;;;4996368;28;20062;-89
2022/10/17 11:08:34;;;;;;;11.93;7.07;;;17.20;88.50;;;;;;5012522;28;20058;-89
2022/10/17 11:11:17;;;;;;;10.77;6.82;;;17.20;88.60;;;;;;4995698;28;20293;-88
2022/10/17 11:13:49;;;;;;;13.30;7.50;;;17.20;88.70;;;;;;5011923;28;20065;-90
2022/10/17 11:16:27;;;;;;;12.45;8.10;;;17.20;89.00;;;;;;4997581;28;20054;-89
2022/10/17 11:19:00;;;;;;;12.35;7.30;;;17.20;89.20;;;;;;4995176;28;20089;-86
2022/10/17 11:21:36;;;;;;;14.23;8.60;;;17.20;89.20;;;;;;5009650;28;20811;-85
2022/10/17 11:24:11;;;;;;;11.57;7.13;;;17.20;89.30;;;;;;4994691;28;20290;-85
2022/10/17 11:26:46;;;;;;;12.35;7.88;;;17.20;89.30;;;;;;4990526;28;20110;-85
2022/10/17 11:29:13;;;;;;;12.70;7.80;;;17.20;89.40;;;;;;4972084;28;20055;-86
2022/10/17 11:31:46;;;;;;;13.30;7.50;;;17.20;89.50;;;;;;5018406;28;20042;-84
2022/10/17 11:34:20;;;;;;;12.30;8.37;;;17.20;89.50;;;;;;5008702;28;20055;-84
2022/10/17 11:36:51;;;;;;;12.88;7.68;;;17.20;89.60;;;;;;5008542;28;20407;-87
2022/10/17 11:39:22;;;;;;;12.02;7.80;;;17.20;89.60;;;;;;5008194;28;20432;-83
2022/10/17 11:41:54;;;;;;;12.38;7.45;;;17.20;89.70;;;;;;5008640;28;20056;-83
2022/10/17 11:44:25;;;;;;;11.88;7.82;;;17.20;89.70;;;;;;4993229;28;20488;-85
2022/10/17 11:46:57;;;;;;;12.40;7.73;;;17.20;89.70;;;;;;4993239;28;20587;-85
2022/10/17 11:49:29;;;;;;;11.18;7.28;;;17.20;89.70;;;;;;5008666;28;20345;-86
2022/10/17 11:52:08;;;;;;;12.77;7.80;;;17.20;89.80;;;;;;4993575;28;20607;-85
2022/10/17 11:54:41;;;;;;;12.48;7.30;;;17.20;89.80;;;;;;4987132;28;20046;-85
2022/10/17 11:57:29;;;;;;;11.43;7.45;;;17.20;89.90;;;;;;4982738;28;20145;-86
2022/10/17 12:00:21;;;;;;;10.63;7.40;;;17.20;90.00;;;;;;5001670;28;20137;-84
2022/10/17 12:02:55;;;;;;;12.20;7.35;;;17.20;90.00;;;;;;5001961;28;20365;-86
2022/10/17 12:05:30;;;;;;;12.07;7.40;;;17.20;90.10;;;;;;4948931;28;20161;-85
2022/10/17 12:08:04;;;;;;;10.73;6.88;;;17.20;90.10;;;;;;4986074;28;20050;-85
2022/10/17 12:10:42;;;;;;;10.18;6.80;;;17.20;90.10;;;;;;4992362;28;20111;-86
2022/10/17 12:13:50;;;;;;;9.67;6.40;;;17.20;90.20;;;;;;5006970;28;20050;-86
2022/10/17 12:16:48;;;;;;;11.25;6.65;;;17.20;90.30;;;;;;4990249;28;20274;-85
2022/10/17 12:19:31;;;;;;;11.05;7.78;;;17.30;90.40;;;;;;4990156;28;20532;-86
2022/10/17 12:22:03;;;;;;;9.82;6.50;;;17.30;90.40;;;;;;4997485;28;20057;-86
2022/10/17 12:24:35;;;;;;;10.20;7.05;;;17.40;90.50;;;;;;4997333;28;20059;-84
2022/10/17 12:27:38;;;;;;;10.03;6.43;;;17.40;90.40;;;;;;4986068;28;20953;-85
2022/10/17 12:30:17;;;;;;;11.25;6.45;;;17.40;90.30;;;;;;5009356;28;20270;-84
2022/10/17 12:33:05;;;;;;;9.38;6.55;;;17.40;90.20;;;;;;4973136;28;20159;-84
2022/10/17 12:35:34;;;;;;;11.43;6.20;;;17.40;90.20;;;;;;5003425;28;20058;-85
2022/10/17 12:38:19;;;;;;;9.70;6.18;;;17.40;90.20;;;;;;4993280;28;20081;-86
2022/10/17 12:40:52;;;;;;;9.87;5.90;;;17.40;90.00;;;;;;5012520;28;20061;-86
2022/10/17 12:43:50;;;;;;;9.38;6.43;;;17.40;90.00;;;;;;4995429;28;20258;-86
2022/10/17 12:46:49;;;;;;;9.52;5.93;;;17.40;90.00;;;;;;4996176;28;20077;-85
2022/10/17 12:49:39;;;;;;;9.70;6.25;;;17.40;90.00;;;;;;4992564;28;20109;-86
2022/10/17 12:52:48;;;;;;;9.93;6.88;;;17.40;89.90;;;;;;5007629;28;20062;-86
2022/10/17 12:55:18;;;;;;;10.23;7.03;;;17.40;89.80;;;;;;4995923;28;20210;-85
2022/10/17 12:57:55;;;;;;;8.50;5.47;;;17.50;89.70;;;;;;5010781;28;20744;-86
2022/10/17 13:00:29;;;;;;;9.43;5.63;;;17.40;89.70;;;;;;4992232;28;20049;-85
2022/10/17 13:03:03;;;;;;;8.93;5.68;;;17.40;89.60;;;;;;4988645;28;20153;-85
2022/10/17 13:05:32;;;;;;;8.50;5.38;;;17.50;89.40;;;;;;5010428;28;20054;-83
2022/10/17 13:08:02;;;;;;;9.97;5.77;;;17.40;89.30;;;;;;5009820;28;20058;-83
2022/10/17 13:10:34;;;;;;;7.68;5.15;;;17.40;89.30;;;;;;5005700;28;20347;-85